Time;durP1;ratioP1;P1;durP2;ratioP2;P2;SDS_P1;SDS_P2;PMS_P1;PMS_P2;Temp;Humidity;BMP_temperature;BMP_pressure;BME280_temperature;BME280_humidity;BME280_pressure;Samples;Min_cycle;Max_cycle;Signal;HPM_P1;HPM_P2
2023/12/07 00:01:06;;;;;;;45.30;22.73;;;;;;;-9.92;100.00;103361.16;5091753;28;20043;-65
2023/12/07 00:03:31;;;;;;;53.23;25.63;;;;;;;-9.89;100.00;103381.84;5090177;28;20487;-63
2023/12/07 00:05:59;;;;;;;64.93;25.47;;;;;;;-9.95;100.00;103363.69;5091390;28;20044;-65
2023/12/07 00:08:24;;;;;;;58.33;26.33;;;;;;;-10.23;100.00;103344.25;5091357;28;20044;-64
2023/12/07 00:10:50;;;;;;;61.40;25.27;;;;;;;-10.61;100.00;103294.50;5091394;28;20074;-66
2023/12/07 00:13:16;;;;;;;58.40;27.27;;;;;;;-10.32;100.00;103368.97;5091110;28;20043;-67
2023/12/07 00:15:42;;;;;;;57.75;26.27;;;;;;;-10.46;100.00;103343.75;5091389;28;20028;-66
2023/12/07 00:18:08;;;;;;;65.47;26.03;;;;;;;-10.36;100.00;103343.13;5073279;28;20040;-69
2023/12/07 00:20:33;;;;;;;60.30;30.53;;;;;;;-10.22;100.00;103369.16;5091228;28;20192;-66
2023/12/07 00:22:59;;;;;;;59.23;28.47;;;;;;;-10.51;100.00;103342.78;5091339;28;20070;-66
2023/12/07 00:25:24;;;;;;;62.07;24.73;;;;;;;-10.53;100.00;103358.19;5091308;28;20032;-66
2023/12/07 00:27:51;;;;;;;66.47;29.83;;;;;;;-10.53;100.00;103375.34;5091000;28;20040;-64
2023/12/07 00:30:16;;;;;;;75.55;31.13;;;;;;;-10.69;100.00;103358.69;5091286;28;20058;-66
2023/12/07 00:32:43;;;;;;;61.87;27.50;;;;;;;-11.00;100.00;103329.63;5091219;28;20036;-65
2023/12/07 00:35:13;;;;;;;59.22;26.90;;;;;;;-10.80;100.00;103368.72;5091375;28;20036;-65
2023/12/07 00:37:38;;;;;;;66.72;26.75;;;;;;;-11.11;100.00;103310.50;5091219;28;20035;-67
2023/12/07 00:40:05;;;;;;;74.57;26.93;;;;;;;-10.57;100.00;103394.16;5091054;28;20463;-66
2023/12/07 00:42:30;;;;;;;62.30;26.85;;;;;;;-10.72;100.00;103369.75;5091318;28;20031;-66
2023/12/07 00:44:56;;;;;;;57.57;27.37;;;;;;;-10.87;100.00;103353.97;5090976;28;20038;-66
2023/12/07 00:47:22;;;;;;;60.67;25.40;;;;;;;-10.81;100.00;103379.84;5090911;28;20038;-65
2023/12/07 00:49:48;;;;;;;62.67;24.37;;;;;;;-10.72;100.00;103389.50;5089802;28;20032;-65
2023/12/07 00:52:14;;;;;;;73.65;30.52;;;;;;;-10.85;100.00;103384.91;5089945;28;20036;-65
2023/12/07 00:54:39;;;;;;;59.77;26.07;;;;;;;-10.91;100.00;103382.19;5090829;28;20028;-65
2023/12/07 00:57:08;;;;;;;61.17;26.40;;;;;;;-11.05;100.00;103374.97;5091057;28;20169;-66
2023/12/07 00:59:33;;;;;;;66.60;24.17;;;;;;;-10.97;100.00;103386.34;5091388;28;20036;-65
2023/12/07 01:02:04;;;;;;;60.40;26.97;;;;;;;-10.89;100.00;103406.25;5093975;28;20391;-65
2023/12/07 01:04:31;;;;;;;67.55;29.17;;;;;;;-10.98;100.00;103402.63;5094523;28;20491;-66
2023/12/07 01:06:57;;;;;;;58.72;24.73;;;;;;;-11.05;100.00;103395.56;5094724;28;20458;-65
2023/12/07 01:09:22;;;;;;;65.95;30.70;;;;;;;-11.22;100.00;103381.41;5094266;28;20032;-65
2023/12/07 01:11:48;;;;;;;52.20;22.67;;;;;;;-11.31;100.00;103373.44;5094262;28;20062;-64
2023/12/07 01:14:14;;;;;;;58.42;27.40;;;;;;;-11.57;100.00;103322.22;5094383;28;20109;-64
2023/12/07 01:16:40;;;;;;;51.97;27.50;;;;;;;-11.26;100.00;103374.47;5094218;28;20471;-65
2023/12/07 01:19:07;;;;;;;63.80;22.37;;;;;;;-11.36;100.00;103357.03;5093916;28;20047;-66
2023/12/07 01:21:33;;;;;;;59.80;23.60;;;;;;;-11.08;100.00;103400.63;5092798;28;20081;-66
2023/12/07 01:23:59;;;;;;;67.15;23.75;;;;;;;-11.06;100.00;103383.53;5092917;28;20490;-66
2023/12/07 01:26:25;;;;;;;58.33;26.63;;;;;;;-10.99;100.00;103400.84;5094261;28;20032;-65
2023/12/07 01:28:50;;;;;;;51.00;22.85;;;;;;;-11.33;100.00;103364.81;5094393;28;20510;-64
2023/12/07 01:31:17;;;;;;;52.67;24.83;;;;;;;-11.07;100.00;103401.50;5094558;28;20074;-65
2023/12/07 01:33:43;;;;;;;56.85;23.63;;;;;;;-11.30;100.00;103380.34;5094030;28;20403;-64
2023/12/07 01:36:10;;;;;;;62.67;25.30;;;;;;;-11.57;100.00;103347.03;5093826;28;20444;-68
2023/12/07 01:38:35;;;;;;;57.80;24.10;;;;;;;-11.49;100.00;103389.28;5092456;28;20043;-66
2023/12/07 01:41:01;;;;;;;49.43;19.47;;;;;;;-11.39;100.00;103413.53;5093616;28;20036;-65
2023/12/07 01:43:27;;;;;;;45.60;20.77;;;;;;;-11.52;100.00;103403.75;5092888;28;20080;-65
2023/12/07 01:45:56;;;;;;;51.93;21.60;;;;;;;-11.76;100.00;103371.41;5093850;28;20028;-65
2023/12/07 01:48:24;;;;;;;51.50;22.02;;;;;;;-11.78;100.00;103391.09;5093589;28;20119;-66
2023/12/07 01:50:51;;;;;;;52.60;22.35;;;;;;;-11.69;100.00;103411.00;5093305;28;20164;-67
2023/12/07 01:53:17;;;;;;;45.33;19.77;;;;;;;-11.78;100.00;103414.22;5092921;28;20091;-66
2023/12/07 01:55:42;;;;;;;48.53;20.20;;;;;;;-11.74;100.00;103426.28;5092352;28;20204;-66
2023/12/07 01:58:09;;;;;;;53.90;26.80;;;;;;;-11.80;100.00;103415.00;5093811;28;20509;-64
2023/12/07 02:00:35;;;;;;;46.60;18.95;;;;;;;-11.99;100.00;103403.31;5093383;28;20036;-66
2023/12/07 02:03:04;;;;;;;48.63;18.58;;;;;;;-11.98;100.00;103425.63;5093648;28;20028;-65
2023/12/07 02:05:32;;;;;;;44.95;20.50;;;;;;;-12.11;100.00;103429.53;5093706;28;20407;-65
2023/12/07 02:07:58;;;;;;;48.95;21.13;;;;;;;-12.31;100.00;103421.22;5092046;28;20135;-67
2023/12/07 02:10:24;;;;;;;47.87;18.40;;;;;;;-12.28;100.00;103444.41;5093405;28;20064;-65
2023/12/07 02:12:52;;;;;;;38.33;20.15;;;;;;;-12.41;100.00;103433.75;5091121;28;20043;-66
2023/12/07 02:15:20;;;;;;;38.80;18.85;;;;;;;-12.52;100.00;103430.81;5093203;28;20075;-65
2023/12/07 02:18:07;;;;;;;35.55;18.20;;;;;;;-12.64;100.00;103427.88;5091770;28;20038;-65
2023/12/07 02:21:30;;;;;;;32.03;16.40;;;;;;;-12.57;100.00;103453.78;5091865;28;20550;-65
2023/12/07 02:23:58;;;;;;;43.00;15.65;;;;;;;-12.65;100.00;103459.50;5081013;28;20075;-65
2023/12/07 02:26:31;;;;;;;42.05;19.95;;;;;;;-12.96;100.00;103416.56;5091386;28;20044;-66
2023/12/07 02:28:57;;;;;;;32.38;16.33;;;;;;;-12.93;100.00;103432.94;5074875;28;20039;-66
2023/12/07 02:31:23;;;;;;;39.50;17.07;;;;;;;-12.89;100.00;103450.16;5092934;28;20027;-66
2023/12/07 02:33:49;;;;;;;36.13;20.30;;;;;;;-12.98;100.00;103439.59;5091532;28;20047;-66
2023/12/07 02:36:17;;;;;;;34.33;16.27;;;;;;;-12.93;100.00;103453.44;5092795;28;20532;-66
2023/12/07 02:38:44;;;;;;;39.72;16.05;;;;;;;-13.18;100.00;103417.56;5092738;28;20119;-65
2023/12/07 02:41:11;;;;;;;33.17;18.70;;;;;;;-13.07;100.00;103444.41;5092672;28;20051;-65
2023/12/07 02:43:36;;;;;;;43.72;19.20;;;;;;;-12.89;100.00;103472.38;5092625;28;20166;-67
2023/12/07 02:46:02;;;;;;;34.05;18.88;;;;;;;-13.04;100.00;103451.31;5092752;28;20044;-66
2023/12/07 02:48:29;;;;;;;47.47;21.60;;;;;;;-13.01;100.00;103465.16;5091634;28;20039;-65
2023/12/07 02:50:55;;;;;;;36.28;17.58;;;;;;;-13.12;100.00;103445.94;5092592;28;20159;-65
2023/12/07 02:53:20;;;;;;;36.90;20.60;;;;;;;-13.09;100.00;103456.31;5091274;28;20127;-65
2023/12/07 02:55:46;;;;;;;43.70;22.37;;;;;;;-13.06;100.00;103464.09;5092491;28;20051;-65
2023/12/07 02:58:11;;;;;;;39.00;20.13;;;;;;;-13.38;100.00;103436.50;5092800;28;20511;-65
2023/12/07 03:00:37;;;;;;;47.37;20.97;;;;;;;-13.34;100.00;103433.22;5091316;28;20055;-65
2023/12/07 03:03:03;;;;;;;31.83;19.97;;;;;;;-13.18;100.00;103463.72;5091163;28;20039;-64
2023/12/07 03:05:28;;;;;;;37.77;17.63;;;;;;;-13.47;100.00;103421.69;5092162;28;20151;-65
2023/12/07 03:07:54;;;;;;;36.63;17.73;;;;;;;-13.84;100.00;103374.28;5091170;28;20128;-66
2023/12/07 03:10:19;;;;;;;31.60;16.47;;;;;;;-13.44;100.00;103446.56;5090767;28;20036;-64
2023/12/07 03:12:45;;;;;;;40.67;18.67;;;;;;;-13.34;100.00;103470.00;5090925;28;20043;-65
2023/12/07 03:15:13;;;;;;;34.77;18.63;;;;;;;-13.38;100.00;103467.28;5092032;28;20134;-65
2023/12/07 03:17:39;;;;;;;43.45;18.58;;;;;;;-13.58;100.00;103429.00;5092288;28;20043;-66
2023/12/07 03:20:05;;;;;;;30.80;16.57;;;;;;;-13.30;100.00;103481.22;5092050;28;20032;-66
2023/12/07 03:22:31;;;;;;;36.15;16.73;;;;;;;-13.29;100.00;103483.88;5090872;28;20153;-66
2023/12/07 03:24:56;;;;;;;39.97;18.00;;;;;;;-13.51;100.00;103442.91;5073849;28;20186;-69
2023/12/07 03:27:22;;;;;;;39.00;19.90;;;;;;;-13.38;100.00;103483.53;5092135;28;20052;-67
2023/12/07 03:29:48;;;;;;;33.10;17.43;;;;;;;-13.49;100.00;103467.78;5092088;28;20035;-68
2023/12/07 03:32:13;;;;;;;42.40;17.67;;;;;;;-13.42;100.00;103497.06;5092322;28;20040;-67
2023/12/07 03:34:39;;;;;;;32.30;17.10;;;;;;;-13.77;100.00;103435.16;5091895;28;20039;-65
2023/12/07 03:37:04;;;;;;;36.27;17.47;;;;;;;-13.76;100.00;103459.06;5091785;28;20479;-68
2023/12/07 03:39:32;;;;;;;28.47;17.80;;;;;;;-13.65;100.00;103482.53;5090331;28;20039;-66
2023/12/07 03:41:58;;;;;;;34.08;15.02;;;;;;;-13.76;100.00;103477.00;5092005;28;20032;-66
2023/12/07 03:44:26;;;;;;;26.25;15.63;;;;;;;-14.79;100.00;103298.22;5074186;28;20580;-66
2023/12/07 03:46:53;;;;;;;34.97;17.00;;;;;;;-14.00;100.00;103432.53;5090753;28;20043;-65
2023/12/07 03:49:18;;;;;;;36.03;18.02;;;;;;;-13.72;100.00;103493.38;5091767;28;20518;-68
2023/12/07 03:51:44;;;;;;;29.23;14.83;;;;;;;-13.63;100.00;103509.06;5091305;28;20031;-67
2023/12/07 03:54:09;;;;;;;34.57;17.63;;;;;;;-13.67;100.00;103508.09;5091012;28;20032;-65
2023/12/07 03:56:35;;;;;;;32.87;17.20;;;;;;;-13.72;100.00;103501.94;5092030;28;20042;-67
2023/12/07 03:59:01;;;;;;;33.03;15.27;;;;;;;-13.88;100.00;103484.22;5091751;28;20522;-66
2023/12/07 04:01:28;;;;;;;28.93;15.10;;;;;;;-13.72;100.00;103521.56;5091661;28;20042;-67
2023/12/07 04:03:55;;;;;;;34.20;15.95;;;;;;;-13.78;100.00;103512.81;5091462;28;20147;-67
2023/12/07 04:06:22;;;;;;;29.77;17.85;;;;;;;-13.75;100.00;103517.19;5090119;28;20040;-66
2023/12/07 04:08:48;;;;;;;28.52;16.77;;;;;;;-13.76;100.00;103515.44;5091572;28;20067;-67
2023/12/07 04:11:14;;;;;;;31.37;16.40;;;;;;;-13.72;100.00;103532.69;5090303;28;20082;-68
2023/12/07 04:13:41;;;;;;;26.42;15.85;;;;;;;-13.91;100.00;103489.22;5090299;28;20489;-68
2023/12/07 04:16:09;;;;;;;24.85;15.07;;;;;;;-13.85;100.00;103521.09;5091499;28;20036;-66
2023/12/07 04:18:34;;;;;;;34.90;18.23;;;;;;;-13.98;100.00;103500.06;5091417;28;20487;-67
2023/12/07 04:21:00;;;;;;;34.60;19.47;;;;;;;-13.94;100.00;103510.47;5092095;28;20116;-67
2023/12/07 04:23:26;;;;;;;36.07;17.17;;;;;;;-13.85;100.00;103522.78;5090910;28;20032;-66
2023/12/07 04:25:51;;;;;;;33.13;16.47;;;;;;;-13.91;100.00;103528.53;5091068;28;20035;-66
2023/12/07 04:28:17;;;;;;;25.90;15.33;;;;;;;-13.99;100.00;103500.88;5090519;28;20170;-67
2023/12/07 04:30:43;;;;;;;27.47;14.27;;;;;;;-13.97;100.00;103496.69;5089471;28;20036;-67
2023/12/07 04:33:08;;;;;;;29.40;14.33;;;;;;;-14.35;100.00;103426.97;5089842;28;20048;-68
2023/12/07 04:35:34;;;;;;;28.23;16.63;;;;;;;-13.73;100.00;103528.38;5091869;28;20036;-66
2023/12/07 04:38:00;;;;;;;27.67;15.17;;;;;;;-13.93;100.00;103507.09;5095027;28;20036;-65
2023/12/07 04:40:26;;;;;;;28.87;15.97;;;;;;;-13.99;100.00;103490.63;5094856;28;20062;-65
2023/12/07 04:42:52;;;;;;;32.60;15.77;;;;;;;-14.03;99.81;103499.03;5095300;28;20540;-68
2023/12/07 04:45:17;;;;;;;36.93;19.87;;;;;;;-13.94;100.00;103517.28;5093329;28;20272;-68
2023/12/07 04:47:43;;;;;;;28.67;16.57;;;;;;;-13.85;99.72;103543.28;5093553;28;20444;-70
2023/12/07 04:50:11;;;;;;;32.60;15.73;;;;;;;-14.04;99.32;103502.41;5094380;28;20071;-68
2023/12/07 04:52:37;;;;;;;25.50;14.68;;;;;;;-14.28;99.52;103476.69;5094288;28;20046;-68
2023/12/07 04:55:06;;;;;;;26.30;16.13;;;;;;;-13.97;99.47;103542.78;5094434;28;20036;-66
2023/12/07 04:57:33;;;;;;;29.65;14.35;;;;;;;-14.05;100.00;103531.38;5094327;28;20312;-67
2023/12/07 04:59:59;;;;;;;25.23;13.65;;;;;;;-13.95;99.71;103551.41;5092880;28;20036;-67
2023/12/07 05:02:24;;;;;;;28.40;16.53;;;;;;;-14.00;99.98;103542.66;5095870;28;20039;-67
2023/12/07 05:04:50;;;;;;;30.43;17.90;;;;;;;-13.99;100.00;103554.66;5093116;28;20075;-68
2023/12/07 05:07:16;;;;;;;32.93;14.93;;;;;;;-14.04;99.82;103548.50;5093930;28;20048;-69
2023/12/07 05:09:42;;;;;;;31.00;15.65;;;;;;;-14.15;99.75;103541.28;5094147;28;20028;-67
2023/12/07 05:12:08;;;;;;;26.40;13.63;;;;;;;-14.32;99.40;103514.09;5094056;28;20498;-67
2023/12/07 05:14:34;;;;;;;36.43;16.00;;;;;;;-14.17;99.50;103555.66;5094844;28;20032;-70
2023/12/07 05:17:01;;;;;;;22.40;13.52;;;;;;;-14.26;100.00;103541.63;5099156;28;20349;-72
2023/12/07 05:19:26;;;;;;;27.35;14.98;;;;;;;-14.79;99.72;103451.66;5100856;28;20051;-66
2023/12/07 05:21:52;;;;;;;25.53;15.47;;;;;;;-14.26;99.94;103537.38;5113759;28;20027;-70
2023/12/07 05:24:18;;;;;;;41.97;20.90;;;;;;;-14.47;99.40;103498.16;5112982;28;20032;-67
2023/12/07 05:26:48;;;;;;;34.87;18.23;;;;;;;-14.21;98.67;103558.03;5114494;28;20035;-65
2023/12/07 05:29:15;;;;;;;27.52;15.20;;;;;;;-14.49;98.21;103507.47;5114347;28;20043;-67
2023/12/07 05:31:41;;;;;;;27.17;17.30;;;;;;;-14.16;99.40;103562.56;5093545;28;20036;-70
2023/12/07 05:34:07;;;;;;;23.23;15.43;;;;;;;-14.20;98.90;103558.09;5092329;28;20047;-75
2023/12/07 05:36:33;;;;;;;26.40;16.25;;;;;;;-14.45;98.12;103511.91;5094360;28;20597;-67
2023/12/07 05:38:58;;;;;;;27.77;13.57;;;;;;;-14.63;98.29;103470.22;5094153;28;20159;-67
2023/12/07 05:41:25;;;;;;;26.97;16.23;;;;;;;-14.30;97.75;103550.00;5092947;28;20028;-69
2023/12/07 05:43:52;;;;;;;32.47;15.88;;;;;;;-14.44;97.17;103549.50;5098397;28;20042;-68
2023/12/07 05:46:21;;;;;;;32.15;17.67;;;;;;;-14.63;96.92;103535.06;5112785;28;20512;-71
2023/12/07 05:48:47;;;;;;;27.67;17.52;;;;;;;-14.37;97.56;103569.38;5113548;28;20039;-69
2023/12/07 05:51:17;;;;;;;25.27;15.00;;;;;;;-14.62;97.19;103546.16;5113319;27;20028;-69
2023/12/07 05:53:43;;;;;;;24.73;15.95;;;;;;;-14.42;98.25;103571.75;5113290;28;20042;-67
2023/12/07 05:56:10;;;;;;;34.42;19.08;;;;;;;-14.59;97.71;103541.16;5111855;28;20038;-67
2023/12/07 05:58:36;;;;;;;31.08;16.65;;;;;;;-14.62;97.29;103546.16;5113211;28;20063;-68
2023/12/07 06:01:02;;;;;;;27.80;16.43;;;;;;;-14.42;99.07;103588.78;5113312;28;20039;-67
2023/12/07 06:03:28;;;;;;;35.65;17.45;;;;;;;-14.73;98.12;103528.69;5113585;28;20039;-67
2023/12/07 06:05:55;;;;;;;33.88;20.23;;;;;;;-14.65;98.23;103536.69;5112264;28;20073;-69
2023/12/07 06:08:22;;;;;;;36.88;19.38;;;;;;;-14.41;98.69;103580.28;5112752;28;20044;-68
2023/12/07 06:10:48;;;;;;;50.22;23.08;;;;;;;-14.28;99.20;103592.78;5114191;28;20072;-66
2023/12/07 06:13:14;;;;;;;46.25;24.38;;;;;;;-14.38;98.34;103574.44;5114622;28;20130;-68
2023/12/07 06:15:40;;;;;;;39.40;22.13;;;;;;;-14.28;98.97;103595.34;5114732;28;20047;-69
2023/12/07 06:18:05;;;;;;;47.33;24.63;;;;;;;-14.25;99.61;103599.69;5114105;28;20040;-65
2023/12/07 06:20:32;;;;;;;60.00;30.83;;;;;;;-14.42;99.07;103571.75;5115913;28;20053;-66
2023/12/07 06:22:57;;;;;;;64.07;30.40;;;;;;;-14.37;98.78;103583.84;5114960;28;20027;-69
2023/12/07 06:25:23;;;;;;;42.33;24.53;;;;;;;-14.30;98.78;103590.97;5113457;27;20120;-67
2023/12/07 06:27:49;;;;;;;43.15;18.67;;;;;;;-14.36;99.09;103578.78;5113180;28;20126;-66
2023/12/07 06:30:15;;;;;;;40.37;20.27;;;;;;;-14.24;99.22;103586.97;5113448;28;20043;-67
2023/12/07 06:32:41;;;;;;;38.80;19.57;;;;;;;-14.44;98.85;103569.97;5113387;28;20074;-68
2023/12/07 06:35:07;;;;;;;33.80;17.07;;;;;;;-14.32;99.12;103605.38;5113017;28;20269;-67
2023/12/07 06:37:33;;;;;;;33.50;18.52;;;;;;;-14.52;99.98;103571.31;5109845;28;20055;-69
2023/12/07 06:40:00;;;;;;;29.03;17.70;;;;;;;-14.47;100.00;103574.94;5113182;28;20078;-68
2023/12/07 06:42:26;;;;;;;27.38;15.95;;;;;;;-14.36;100.00;103601.81;5112644;28;20791;-66
2023/12/07 06:44:52;;;;;;;28.98;15.70;;;;;;;-14.58;100.00;103550.59;5111185;28;20036;-65
2023/12/07 06:47:18;;;;;;;43.97;20.23;;;;;;;-14.22;100.00;103608.38;5112547;28;20046;-68
2023/12/07 06:49:46;;;;;;;31.03;16.83;;;;;;;-14.23;100.00;103604.06;5112424;28;20281;-69
2023/12/07 06:52:12;;;;;;;37.40;18.85;;;;;;;-14.35;100.00;103588.22;5111715;28;20505;-67
2023/12/07 06:54:38;;;;;;;39.42;19.70;;;;;;;-14.22;100.00;103600.69;5113588;27;20044;-68
2023/12/07 06:57:06;;;;;;;38.38;21.25;;;;;;;-14.47;100.00;103562.13;5111077;28;20033;-65
2023/12/07 06:59:32;;;;;;;39.45;21.13;;;;;;;-14.35;100.00;103598.47;5109456;28;20553;-68
2023/12/07 07:01:58;;;;;;;48.17;23.40;;;;;;;-14.23;100.00;103609.19;5112290;28;20039;-66
2023/12/07 07:04:26;;;;;;;39.30;21.87;;;;;;;-14.35;100.00;103577.09;5111911;28;20403;-67
2023/12/07 07:06:51;;;;;;;39.63;23.70;;;;;;;-14.64;100.00;103524.75;5109722;28;20136;-67
2023/12/07 07:09:17;;;;;;;62.53;26.57;;;;;;;-14.18;100.00;103610.25;5112691;28;20478;-68
2023/12/07 07:11:50;;;;;;;47.42;23.00;;;;;;;-14.09;100.00;103608.09;5111848;28;20036;-69
2023/12/07 07:14:15;;;;;;;38.05;22.33;;;;;;;-14.04;100.00;103609.94;5110502;28;20027;-66
2023/12/07 07:16:41;;;;;;;37.97;20.93;;;;;;;-14.21;100.00;103592.19;5111845;28;20047;-64
2023/12/07 07:19:07;;;;;;;39.57;22.10;;;;;;;-14.23;100.00;103598.94;5110700;28;20027;-67
2023/12/07 07:21:32;;;;;;;37.90;21.03;;;;;;;-14.11;100.00;103621.63;5111785;28;20027;-67
2023/12/07 07:23:58;;;;;;;38.70;19.13;;;;;;;-14.20;100.00;103601.63;5111559;28;20024;-66
2023/12/07 07:26:25;;;;;;;42.93;21.17;;;;;;;-14.42;100.00;103574.31;5111457;28;20035;-68
2023/12/07 07:28:53;;;;;;;33.00;19.38;;;;;;;-14.24;100.00;103607.44;5108641;28;20063;-67
2023/12/07 07:31:19;;;;;;;48.00;20.42;;;;;;;-14.35;100.00;103593.34;5111550;28;20594;-69
2023/12/07 07:33:47;;;;;;;44.45;20.83;;;;;;;-14.24;100.00;103610.00;5111769;28;20039;-69
2023/12/07 07:36:14;;;;;;;39.67;20.17;;;;;;;-14.65;100.00;103533.25;5112087;28;20031;-67
2023/12/07 07:38:41;;;;;;;41.35;21.52;;;;;;;-14.19;100.00;103608.50;5112622;28;20070;-68
2023/12/07 07:41:07;;;;;;;41.90;22.08;;;;;;;-14.22;100.00;103597.25;5111625;28;20032;-66
2023/12/07 07:43:34;;;;;;;40.77;22.43;;;;;;;-13.93;100.00;103629.19;5111191;28;20038;-68
2023/12/07 07:46:00;;;;;;;42.65;21.95;;;;;;;-13.94;100.00;103607.81;5112183;28;20407;-64
2023/12/07 07:48:26;;;;;;;46.10;24.42;;;;;;;-13.76;100.00;103625.63;5110848;28;20027;-67
2023/12/07 07:50:52;;;;;;;43.63;21.70;;;;;;;-13.65;100.00;103624.34;5110932;28;20035;-68
2023/12/07 07:53:17;;;;;;;47.90;21.50;;;;;;;-13.68;100.00;103619.09;5109815;28;20100;-68
2023/12/07 07:55:43;;;;;;;39.07;24.03;;;;;;;-13.48;100.00;103645.50;5111679;28;20401;-66
2023/12/07 07:58:08;;;;;;;47.27;22.37;;;;;;;-13.62;100.00;103631.28;5111053;28;20122;-66
2023/12/07 08:00:34;;;;;;;41.90;20.43;;;;;;;-13.73;100.00;103606.91;5112072;28;20104;-66
2023/12/07 08:03:00;;;;;;;42.03;22.20;;;;;;;-13.63;100.00;103630.41;5112081;28;20027;-66
2023/12/07 08:05:29;;;;;;;43.83;23.17;;;;;;;-13.66;100.00;103634.53;5112885;28;20055;-68
2023/12/07 08:07:55;;;;;;;;;;;;;;;-13.49;100.00;103647.19;5113071;28;20060;-68
2023/12/07 08:10:24;;;;;;;44.10;20.80;;;;;;;-14.67;100.00;103432.53;5114307;28;19924;-68
2023/12/07 08:12:50;;;;;;;44.22;24.20;;;;;;;-13.39;100.00;103634.72;5114691;28;20672;-68
2023/12/07 08:15:16;;;;;;;35.72;21.20;;;;;;;-13.34;100.00;103646.91;5114949;28;20453;-68
2023/12/07 08:17:42;;;;;;;40.23;19.80;;;;;;;-13.33;100.00;103645.22;5113253;28;20112;-67
2023/12/07 08:20:11;;;;;;;38.63;21.27;;;;;;;-13.41;100.00;103633.78;5114638;28;20028;-67
2023/12/07 08:22:51;;;;;;;42.28;23.50;;;;;;;-13.34;100.00;103643.47;5114834;28;20039;-67
2023/12/07 08:25:17;;;;;;;41.40;20.23;;;;;;;-13.31;100.00;103643.56;5114410;28;20486;-70
2023/12/07 08:27:55;;;;;;;36.85;23.30;;;;;;;-13.29;100.00;103637.72;5113167;28;20031;-69
2023/12/07 08:30:24;;;;;;;43.42;23.05;;;;;;;-13.38;100.00;103615.97;5113386;28;20028;-67
2023/12/07 08:32:50;;;;;;;46.50;22.05;;;;;;;-13.19;100.00;103623.53;5113595;28;20143;-66
2023/12/07 08:35:16;;;;;;;50.87;24.67;;;;;;;-13.07;100.00;103643.59;5114422;28;20031;-67
2023/12/07 08:37:41;;;;;;;76.93;30.17;;;;;;;-13.13;100.00;103645.13;5114577;28;20039;-67
2023/12/07 08:40:07;;;;;;;67.53;30.37;;;;;;;-13.18;99.83;103636.44;5112892;28;20032;-66
2023/12/07 08:42:33;;;;;;;52.20;25.88;;;;;;;-13.25;100.00;103633.56;5111749;28;20043;-65
2023/12/07 08:44:58;;;;;;;39.53;22.47;;;;;;;-13.13;100.00;103660.50;5113119;28;20036;-68
2023/12/07 08:47:27;;;;;;;38.83;20.43;;;;;;;-13.26;99.63;103634.41;5113778;28;20027;-67
2023/12/07 08:49:52;;;;;;;;;;;;;;;-13.05;99.85;103673.63;5113102;28;20538;-70
2023/12/07 08:52:18;;;;;;;50.83;24.03;;;;;;;-13.07;98.84;103669.25;5113641;28;19966;-66
2023/12/07 08:54:44;;;;;;;39.57;20.57;;;;;;;-13.29;99.05;103632.59;5113685;28;20510;-62
2023/12/07 08:57:10;;;;;;;47.70;23.20;;;;;;;-13.21;99.25;103655.94;5111815;28;20035;-64
2023/12/07 08:59:35;;;;;;;43.83;24.07;;;;;;;-13.41;98.76;103628.66;5103344;28;20034;-68
2023/12/07 09:02:01;;;;;;;42.03;21.93;;;;;;;-13.35;99.30;103644.28;5113144;28;20031;-64
2023/12/07 09:06:15;;;;;;;42.00;22.08;;;;;;;-13.17;100.00;103673.19;5069329;27;20933;-65
2023/12/07 09:08:40;;;;;;;34.10;20.50;;;;;;;-13.16;100.00;103673.22;5074837;28;20049;-68
2023/12/07 09:11:06;;;;;;;36.83;22.57;;;;;;;-13.07;100.00;103677.81;5068680;28;20425;-68
2023/12/07 09:13:32;;;;;;;45.43;23.83;;;;;;;-13.21;99.81;103643.13;5068811;28;20044;-66
2023/12/07 09:15:57;;;;;;;40.13;20.60;;;;;;;-13.05;99.20;103653.09;5071104;28;20086;-68
2023/12/07 09:18:24;;;;;;;38.73;20.17;;;;;;;-13.02;97.90;103660.91;5066338;28;20041;-68
2023/12/07 09:20:49;;;;;;;35.45;20.63;;;;;;;-13.10;97.80;103648.63;5068611;28;20043;-67
2023/12/07 09:23:15;;;;;;;38.47;20.50;;;;;;;-13.43;97.74;103591.84;5069385;28;20131;-67
2023/12/07 09:25:42;;;;;;;38.07;22.67;;;;;;;-13.08;98.22;103663.25;5068898;28;20033;-67
2023/12/07 09:28:08;;;;;;;33.97;19.77;;;;;;;-12.99;97.96;103681.56;5068545;28;20116;-65
2023/12/07 09:30:33;;;;;;;38.60;19.92;;;;;;;-12.97;97.87;103681.63;5066405;28;20033;-69
2023/12/07 09:33:02;;;;;;;35.03;23.00;;;;;;;-12.98;98.45;103680.75;5067495;28;20128;-66
2023/12/07 09:35:27;;;;;;;33.75;20.98;;;;;;;-13.00;99.05;103666.13;5067576;28;20518;-69
2023/12/07 09:37:54;;;;;;;41.20;22.17;;;;;;;-12.86;98.81;103681.19;5067630;28;20036;-65
2023/12/07 09:40:22;;;;;;;45.58;21.55;;;;;;;-12.79;98.87;103678.84;5067652;28;20040;-67
2023/12/07 09:42:48;;;;;;;44.63;23.42;;;;;;;-12.78;98.82;103666.06;5067601;28;20028;-67
2023/12/07 09:45:16;;;;;;;35.05;18.65;;;;;;;-12.60;98.50;103683.84;5067199;28;20056;-66
2023/12/07 09:47:43;;;;;;;45.25;22.70;;;;;;;-12.69;98.50;103657.84;5066545;28;20071;-68
2023/12/07 09:50:13;;;;;;;38.95;22.45;;;;;;;-12.42;98.26;103688.78;5066414;28;20163;-68
2023/12/07 09:52:40;;;;;;;34.78;19.88;;;;;;;-12.60;97.47;103663.31;5067334;28;20032;-66
2023/12/07 09:55:06;;;;;;;32.47;19.02;;;;;;;-13.07;98.91;103613.69;5066906;28;20068;-71
2023/12/07 09:57:36;;;;;;;;;;;;;;;-12.58;99.41;103685.63;5066162;28;20043;-69
2023/12/07 10:00:02;;;;;;;36.15;17.48;;;;;;;-13.28;99.59;103559.09;5069712;28;19921;-68
2023/12/07 10:02:31;;;;;;;28.33;17.77;;;;;;;-12.67;99.74;103661.34;5069166;28;20040;-68
2023/12/07 10:05:09;;;;;;;30.42;16.40;;;;;;;-12.55;99.84;103688.31;5067533;28;20404;-68
2023/12/07 10:07:37;;;;;;;30.55;18.42;;;;;;;-12.64;99.55;103664.88;5067822;28;20045;-66
2023/12/07 10:10:04;;;;;;;35.35;19.98;;;;;;;-12.46;100.00;103677.47;5067549;28;20045;-70
2023/12/07 10:12:34;;;;;;;31.92;19.10;;;;;;;-12.37;100.00;103675.25;5067450;28;20132;-70
2023/12/07 10:15:16;;;;;;;33.67;17.00;;;;;;;-12.38;99.11;103675.22;5065999;28;20044;-69
2023/12/07 10:17:52;;;;;;;40.42;22.20;;;;;;;-12.40;99.63;103682.00;5053586;28;20504;-68
2023/12/07 10:20:25;;;;;;;27.35;17.27;;;;;;;-12.54;99.31;103661.81;5054275;28;20040;-69
2023/12/07 10:23:21;;;;;;;34.28;17.52;;;;;;;-12.51;99.63;103684.16;5054245;28;20028;-67
2023/12/07 10:25:47;;;;;;;36.67;18.35;;;;;;;-12.61;100.00;103677.84;5053265;28;20051;-67
2023/12/07 10:28:13;;;;;;;34.10;19.00;;;;;;;-12.57;100.00;103671.09;5054011;28;20029;-71
2023/12/07 10:30:41;;;;;;;53.60;18.07;;;;;;;-12.60;100.00;103668.44;5054009;28;20040;-66
2023/12/07 10:33:07;;;;;;;26.88;16.35;;;;;;;-12.63;100.00;103687.16;5054560;28;20068;-65
2023/12/07 10:35:38;;;;;;;31.63;16.15;;;;;;;-12.73;100.00;103668.78;5054134;28;20033;-69
2023/12/07 10:38:03;;;;;;;29.98;16.80;;;;;;;-12.77;100.00;103674.63;5055751;28;20032;-68
2023/12/07 10:40:35;;;;;;;35.23;18.47;;;;;;;-12.88;100.00;103664.00;5054416;28;20033;-69
2023/12/07 10:43:05;;;;;;;26.85;15.00;;;;;;;-13.01;100.00;103634.47;5054217;28;20037;-67
2023/12/07 10:45:31;;;;;;;23.40;15.98;;;;;;;-12.78;100.00;103667.75;5053865;28;20447;-70
2023/12/07 10:48:04;;;;;;;24.75;14.18;;;;;;;-12.71;100.00;103678.34;5054487;28;20053;-66
2023/12/07 10:50:34;;;;;;;28.25;13.95;;;;;;;-13.88;100.00;103468.84;5054530;28;20119;-68
2023/12/07 10:53:08;;;;;;;28.02;18.90;;;;;;;-12.76;100.00;103671.25;5052264;28;20067;-68
2023/12/07 10:55:43;;;;;;;36.10;19.65;;;;;;;-12.86;100.00;103667.50;5052886;28;20105;-65
2023/12/07 10:58:12;;;;;;;37.83;19.58;;;;;;;-12.79;100.00;103681.41;5053867;28;20511;-67